Time;durP1;ratioP1;P1;durP2;ratioP2;P2;SDS_P1;SDS_P2;PMS_P1;PMS_P2;Temp;Humidity;BMP_temperature;BMP_pressure;BME280_temperature;BME280_humidity;BME280_pressure;Samples;Min_cycle;Max_cycle;Signal;HPM_P1;HPM_P2
2023/04/06 00:02:10;;;;;;;6.03;1.90;;;20.60;99.90;;;;;;5055080;28;20207;-78
2023/04/06 00:04:41;;;;;;;4.93;1.63;;;20.60;99.90;;;;;;5053981;28;20316;-77
2023/04/06 00:07:12;;;;;;;10.13;2.42;;;20.60;99.90;;;;;;5051314;28;20211;-77
2023/04/06 00:09:45;;;;;;;8.95;2.33;;;20.50;99.90;;;;;;5057966;28;20685;-77
2023/04/06 00:12:16;;;;;;;6.63;2.40;;;20.50;99.90;;;;;;5052381;28;20647;-77
2023/04/06 00:14:47;;;;;;;3.95;1.75;;;20.40;99.90;;;;;;5051523;28;20230;-78
2023/04/06 00:17:19;;;;;;;3.50;1.80;;;20.40;99.90;;;;;;5052180;28;20215;-80
2023/04/06 00:19:50;;;;;;;2.95;1.42;;;20.50;99.90;;;;;;5052449;28;20567;-77
2023/04/06 00:22:21;;;;;;;5.75;2.03;;;20.50;99.90;;;;;;5056521;28;20697;-78
2023/04/06 00:24:54;;;;;;;5.28;2.00;;;20.50;99.90;;;;;;5082990;28;20188;-77
2023/04/06 00:27:25;;;;;;;6.85;2.08;;;20.60;99.90;;;;;;5072825;28;20291;-77
2023/04/06 00:29:57;;;;;;;4.70;1.83;;;20.60;99.90;;;;;;5087765;28;20202;-77
2023/04/06 00:32:28;;;;;;;3.83;1.42;;;20.60;99.90;;;;;;5073734;28;20234;-78
2023/04/06 00:34:58;;;;;;;5.22;1.58;;;20.50;99.90;;;;;;5077918;28;20200;-77
2023/04/06 00:37:29;;;;;;;4.18;1.50;;;20.50;99.90;;;;;;5071076;28;20211;-76
2023/04/06 00:40:04;;;;;;;3.45;1.40;;;20.50;99.90;;;;;;5087938;28;20215;-78
2023/04/06 00:42:35;;;;;;;4.75;1.48;;;20.50;99.90;;;;;;5086929;28;20192;-77
2023/04/06 00:45:06;;;;;;;3.42;1.35;;;20.60;99.90;;;;;;5071438;28;20200;-78
2023/04/06 00:47:37;;;;;;;3.95;1.58;;;20.60;99.90;;;;;;5089617;28;20206;-78
2023/04/06 00:50:08;;;;;;;4.07;1.33;;;20.80;99.90;;;;;;5079969;28;20188;-77
2023/04/06 00:52:39;;;;;;;4.00;1.20;;;20.90;99.90;;;;;;5077788;28;20605;-76
2023/04/06 00:55:12;;;;;;;3.83;1.33;;;21.00;99.90;;;;;;5080705;28;20195;-77
2023/04/06 00:57:42;;;;;;;3.40;1.20;;;21.10;99.90;;;;;;5071556;28;20826;-77
2023/04/06 01:00:14;;;;;;;4.05;1.20;;;21.20;99.90;;;;;;5071031;28;20222;-77
2023/04/06 01:02:45;;;;;;;2.33;1.10;;;21.30;99.90;;;;;;5071073;28;20196;-78
2023/04/06 01:05:16;;;;;;;3.63;0.90;;;21.20;99.90;;;;;;5071227;28;20283;-77
2023/04/06 01:07:46;;;;;;;4.10;1.13;;;21.20;99.90;;;;;;5071052;28;20636;-77
2023/04/06 01:10:28;;;;;;;2.20;1.05;;;21.20;99.90;;;;;;5075027;28;20200;-78
2023/04/06 01:12:59;;;;;;;2.15;0.90;;;21.20;99.90;;;;;;5091472;28;20223;-77
2023/04/06 01:15:31;;;;;;;1.75;0.88;;;21.30;99.90;;;;;;5091156;28;20589;-77
2023/04/06 01:18:02;;;;;;;3.28;0.80;;;21.40;99.90;;;;;;5080060;28;20678;-78
2023/04/06 01:20:32;;;;;;;3.45;0.80;;;21.50;99.90;;;;;;5071069;28;20192;-78
2023/04/06 01:23:05;;;;;;;5.68;1.17;;;21.60;99.90;;;;;;5070631;28;20199;-78
2023/04/06 01:25:35;;;;;;;2.47;0.77;;;21.70;99.90;;;;;;5070124;28;20563;-77
2023/04/06 01:28:06;;;;;;;2.70;0.93;;;21.70;99.90;;;;;;5070801;28;20566;-77
2023/04/06 01:30:37;;;;;;;3.53;0.90;;;21.80;99.90;;;;;;5070771;28;20195;-78
2023/04/06 01:33:08;;;;;;;2.83;0.95;;;21.80;99.90;;;;;;5069938;28;20246;-77
2023/04/06 01:35:39;;;;;;;2.67;1.00;;;21.80;99.90;;;;;;5071394;28;20202;-77
2023/04/06 01:38:11;;;;;;;2.92;0.80;;;21.80;99.90;;;;;;5070338;28;20663;-77
2023/04/06 01:40:42;;;;;;;2.78;0.90;;;21.80;99.90;;;;;;5070632;28;20675;-77
2023/04/06 01:43:12;;;;;;;2.17;0.90;;;21.80;99.90;;;;;;5070614;28;20651;-77
2023/04/06 01:45:43;;;;;;;2.38;0.90;;;21.80;99.90;;;;;;5070477;28;20199;-77
2023/04/06 01:48:14;;;;;;;1.77;0.90;;;22.00;99.90;;;;;;5074515;28;20195;-77
2023/04/06 01:50:45;;;;;;;2.63;1.10;;;22.00;99.90;;;;;;5090698;28;20611;-77
2023/04/06 01:53:17;;;;;;;2.20;1.00;;;22.00;99.90;;;;;;5089767;28;20227;-78
2023/04/06 01:55:48;;;;;;;3.00;1.30;;;22.10;99.90;;;;;;5079332;28;20204;-78
2023/04/06 01:58:19;;;;;;;2.03;0.90;;;22.20;99.90;;;;;;5070322;28;20207;-78
2023/04/06 02:00:49;;;;;;;2.72;1.10;;;22.30;99.90;;;;;;5070600;28;20282;-78
2023/04/06 02:03:20;;;;;;;0.90;0.80;;;22.40;99.90;;;;;;5070375;28;20196;-77
2023/04/06 02:05:51;;;;;;;1.98;0.73;;;22.50;99.90;;;;;;5069634;28;20204;-78
2023/04/06 02:08:24;;;;;;;3.00;1.15;;;22.50;99.90;;;;;;5071358;28;20218;-78
2023/04/06 02:10:55;;;;;;;3.28;1.05;;;22.70;99.90;;;;;;5086430;28;20290;-78
2023/04/06 02:13:26;;;;;;;2.85;0.93;;;22.80;99.90;;;;;;5090992;28;20227;-77
2023/04/06 02:15:57;;;;;;;3.33;1.00;;;22.90;99.90;;;;;;5090626;28;20220;-77
2023/04/06 02:18:28;;;;;;;1.90;0.70;;;22.90;99.90;;;;;;5090626;28;20221;-76
2023/04/06 02:21:00;;;;;;;3.47;0.60;;;23.10;99.90;;;;;;5086661;28;20210;-77
2023/04/06 02:23:33;;;;;;;1.92;0.60;;;23.10;99.90;;;;;;5070081;28;20663;-77
2023/04/06 02:26:04;;;;;;;4.13;0.63;;;23.00;99.90;;;;;;5070862;28;20692;-77
2023/04/06 02:28:35;;;;;;;2.25;0.65;;;22.90;99.90;;;;;;5070254;28;20206;-77
2023/04/06 02:31:06;;;;;;;3.05;0.75;;;22.90;99.90;;;;;;5072580;28;20662;-77
2023/04/06 02:33:37;;;;;;;1.10;0.70;;;22.90;99.90;;;;;;5074228;28;20234;-77
2023/04/06 02:36:09;;;;;;;3.28;0.80;;;22.80;99.90;;;;;;5074223;28;20226;-77
2023/04/06 02:38:42;;;;;;;2.85;0.88;;;22.90;99.90;;;;;;5085268;28;20188;-78
2023/04/06 02:41:13;;;;;;;2.65;0.70;;;22.90;99.90;;;;;;5091073;28;20203;-75
2023/04/06 02:43:44;;;;;;;2.30;0.80;;;23.00;99.90;;;;;;5078967;28;20204;-77
2023/04/06 02:46:15;;;;;;;3.60;1.00;;;23.10;99.90;;;;;;5074167;28;20198;-76
2023/04/06 02:48:47;;;;;;;2.60;0.75;;;23.00;99.90;;;;;;5074215;28;20243;-78
2023/04/06 02:51:18;;;;;;;3.45;1.05;;;23.00;99.90;;;;;;5075868;28;20200;-77
2023/04/06 02:53:52;;;;;;;2.03;0.80;;;23.10;99.90;;;;;;5073700;28;20712;-77
2023/04/06 02:56:23;;;;;;;3.05;1.00;;;23.10;99.90;;;;;;5072984;28;20785;-77
2023/04/06 02:58:54;;;;;;;1.60;0.90;;;23.00;99.90;;;;;;5074110;28;20220;-77
2023/04/06 03:01:25;;;;;;;2.50;0.90;;;23.00;99.90;;;;;;5074164;28;20188;-77
2023/04/06 03:03:56;;;;;;;2.97;0.80;;;23.00;99.90;;;;;;5075309;28;20210;-77
2023/04/06 03:06:27;;;;;;;1.67;0.80;;;23.10;99.90;;;;;;5094284;28;20489;-76
2023/04/06 03:09:00;;;;;;;1.98;0.90;;;23.00;99.90;;;;;;5093807;28;20666;-77
2023/04/06 03:11:31;;;;;;;1.80;1.05;;;23.00;99.90;;;;;;5089987;28;20192;-77
2023/04/06 03:14:03;;;;;;;1.55;0.80;;;23.00;99.90;;;;;;5073152;28;20267;-77
2023/04/06 03:16:34;;;;;;;5.18;1.52;;;23.00;99.90;;;;;;5073984;28;20237;-77
2023/04/06 03:19:05;;;;;;;2.28;0.80;;;23.10;99.90;;;;;;5073274;28;20210;-77
2023/04/06 03:21:36;;;;;;;3.28;0.93;;;23.10;99.90;;;;;;5073164;28;20222;-77
2023/04/06 03:24:10;;;;;;;1.80;0.63;;;23.10;99.90;;;;;;5073678;28;20206;-76
2023/04/06 03:26:41;;;;;;;2.83;0.85;;;23.00;99.90;;;;;;5072307;28;20247;-76
2023/04/06 03:29:12;;;;;;;1.20;0.70;;;23.00;99.90;;;;;;5073271;28;20204;-77
2023/04/06 03:31:43;;;;;;;1.75;0.70;;;23.10;99.90;;;;;;5073223;28;20196;-76
2023/04/06 03:34:14;;;;;;;4.43;0.90;;;23.10;99.90;;;;;;5073716;28;20238;-77
2023/04/06 03:36:46;;;;;;;3.65;0.73;;;23.10;99.90;;;;;;5074220;28;20670;-77
2023/04/06 03:39:19;;;;;;;2.33;0.80;;;23.10;99.90;;;;;;5093954;28;20195;-77
2023/04/06 03:41:50;;;;;;;2.55;0.80;;;23.20;99.90;;;;;;5093559;28;20213;-76
2023/04/06 03:44:21;;;;;;;1.92;0.80;;;23.30;99.90;;;;;;5073216;28;20210;-77
2023/04/06 03:46:52;;;;;;;2.75;0.70;;;23.30;99.90;;;;;;5073136;28;20203;-77
2023/04/06 03:49:23;;;;;;;1.70;0.65;;;23.30;99.90;;;;;;5072748;28;20206;-78
2023/04/06 03:51:55;;;;;;;2.95;0.82;;;23.40;99.90;;;;;;5073508;28;20203;-78
2023/04/06 03:54:28;;;;;;;3.08;0.90;;;23.50;99.90;;;;;;5073142;28;20306;-77
2023/04/06 03:57:00;;;;;;;3.45;0.85;;;23.40;99.90;;;;;;5072685;28;20200;-76
2023/04/06 03:59:31;;;;;;;2.58;0.70;;;23.40;99.90;;;;;;5071725;28;20729;-78
2023/04/06 04:02:02;;;;;;;1.85;0.70;;;23.40;99.90;;;;;;5072744;28;20196;-78
2023/04/06 04:04:33;;;;;;;2.75;1.00;;;23.30;99.90;;;;;;5072548;28;20659;-78
2023/04/06 04:07:04;;;;;;;2.17;0.80;;;23.30;99.90;;;;;;5082405;28;20206;-78
2023/04/06 04:09:37;;;;;;;3.13;0.68;;;23.30;99.90;;;;;;5072548;28;20286;-77
2023/04/06 04:12:09;;;;;;;3.35;0.80;;;23.20;99.90;;;;;;5072313;28;20196;-78
2023/04/06 04:14:40;;;;;;;1.42;0.65;;;23.10;99.90;;;;;;5071809;28;20705;-77
2023/04/06 04:17:11;;;;;;;4.32;0.90;;;23.10;99.90;;;;;;5071429;28;20196;-77
2023/04/06 04:19:42;;;;;;;1.73;0.63;;;23.10;99.90;;;;;;5073266;28;20230;-77
2023/04/06 04:22:13;;;;;;;1.83;0.90;;;23.20;99.90;;;;;;5072181;28;20671;-77
2023/04/06 04:24:47;;;;;;;2.15;0.80;;;23.20;99.90;;;;;;5078720;28;20199;-77
2023/04/06 04:27:18;;;;;;;3.25;0.90;;;23.20;99.90;;;;;;5092474;28;20226;-76
2023/04/06 04:29:49;;;;;;;6.78;2.10;;;23.20;99.90;;;;;;5089507;28;20717;-77
2023/04/06 04:32:20;;;;;;;3.05;0.75;;;23.20;99.90;;;;;;5071419;28;20635;-77
2023/04/06 04:34:52;;;;;;;2.65;0.85;;;23.20;99.90;;;;;;5072331;28;20316;-77
2023/04/06 04:37:23;;;;;;;3.35;1.10;;;23.20;99.90;;;;;;5080687;28;20269;-77
2023/04/06 04:39:56;;;;;;;8.57;4.53;;;23.30;99.90;;;;;;5094398;28;20583;-77
2023/04/06 04:42:30;;;;;;;3.75;1.80;;;23.30;99.90;;;;;;5092677;28;20199;-77
2023/04/06 04:45:01;;;;;;;1.85;0.85;;;23.30;99.90;;;;;;5093433;28;20238;-77
2023/04/06 04:47:33;;;;;;;2.03;0.70;;;23.40;99.90;;;;;;5091068;28;20211;-77
2023/04/06 04:50:04;;;;;;;2.90;0.85;;;23.50;99.90;;;;;;5084878;28;20200;-77
2023/04/06 04:52:35;;;;;;;1.73;0.77;;;23.40;99.90;;;;;;5080063;28;20196;-77
2023/04/06 04:55:10;;;;;;;2.33;0.82;;;23.50;99.90;;;;;;5079693;28;20263;-77
2023/04/06 04:57:41;;;;;;;2.42;0.77;;;23.50;99.90;;;;;;5079149;28;20195;-77
2023/04/06 05:00:13;;;;;;;1.63;0.80;;;23.50;99.90;;;;;;5098591;28;20219;-77
2023/04/06 05:02:45;;;;;;;3.42;1.00;;;23.50;99.90;;;;;;5099112;28;20191;-77
2023/04/06 05:05:18;;;;;;;2.03;0.80;;;23.30;99.90;;;;;;5085739;28;20236;-77
2023/04/06 05:07:49;;;;;;;1.92;0.90;;;23.40;99.90;;;;;;5071559;28;20200;-77
2023/04/06 05:10:23;;;;;;;2.85;0.80;;;23.40;99.90;;;;;;5071843;28;20251;-77
2023/04/06 05:12:54;;;;;;;1.98;0.80;;;23.40;99.90;;;;;;5072798;28;20234;-77
2023/04/06 05:15:25;;;;;;;4.00;0.90;;;23.40;99.90;;;;;;5087914;28;20236;-77
2023/04/06 05:17:57;;;;;;;2.30;0.60;;;23.40;99.90;;;;;;5072011;28;20218;-76
2023/04/06 05:20:29;;;;;;;3.30;0.80;;;23.40;99.90;;;;;;5071818;28;20242;-77
2023/04/06 05:23:00;;;;;;;2.03;0.77;;;23.40;99.90;;;;;;5070671;28;20671;-77
2023/04/06 05:25:34;;;;;;;2.33;0.70;;;23.40;99.90;;;;;;5071702;28;20655;-80
2023/04/06 05:28:06;;;;;;;3.08;0.88;;;23.40;99.90;;;;;;5076792;28;20204;-79
2023/04/06 05:30:37;;;;;;;2.72;0.68;;;23.50;99.90;;;;;;5081546;28;20194;-79
2023/04/06 05:33:08;;;;;;;2.90;0.90;;;23.50;99.90;;;;;;5083911;28;20200;-78
2023/04/06 05:35:39;;;;;;;2.28;0.90;;;23.40;99.90;;;;;;5081824;28;20283;-78
2023/04/06 05:38:12;;;;;;;4.65;0.70;;;23.40;99.90;;;;;;5085843;28;20194;-79
2023/04/06 05:40:45;;;;;;;2.03;0.57;;;23.40;99.90;;;;;;5085623;28;20242;-79
2023/04/06 05:43:16;;;;;;;0.95;0.47;;;23.40;99.90;;;;;;5091117;28;20210;-78
2023/04/06 05:45:49;;;;;;;2.90;0.40;;;23.30;99.90;;;;;;5089629;28;20190;-79
2023/04/06 05:48:22;;;;;;;1.52;0.65;;;23.30;99.90;;;;;;5085033;28;20228;-80
2023/04/06 05:50:53;;;;;;;1.90;0.43;;;23.30;99.90;;;;;;5071399;28;20679;-78
2023/04/06 05:53:26;;;;;;;1.23;0.57;;;23.30;99.90;;;;;;5070852;28;20239;-79
2023/04/06 05:55:59;;;;;;;1.77;0.52;;;23.30;99.90;;;;;;5079703;28;20223;-79
2023/04/06 05:58:30;;;;;;;2.20;0.70;;;23.20;99.90;;;;;;5089270;28;20215;-79
2023/04/06 06:01:02;;;;;;;1.70;0.65;;;23.20;99.90;;;;;;5088137;28;20207;-79
2023/04/06 06:03:33;;;;;;;2.15;0.63;;;23.10;99.90;;;;;;5087597;28;20204;-78
2023/04/06 06:06:05;;;;;;;2.00;0.50;;;23.20;99.90;;;;;;5074680;28;20231;-78
2023/04/06 06:08:36;;;;;;;2.63;0.60;;;23.10;99.90;;;;;;5079601;28;20234;-78
2023/04/06 06:11:09;;;;;;;1.92;0.80;;;23.10;99.90;;;;;;5087173;28;20249;-79
2023/04/06 06:13:41;;;;;;;1.58;0.63;;;23.10;99.90;;;;;;5086159;28;20223;-78
2023/04/06 06:16:12;;;;;;;2.00;0.50;;;23.10;99.90;;;;;;5089935;28;20227;-79
2023/04/06 06:18:44;;;;;;;2.20;0.45;;;23.00;99.90;;;;;;5088237;28;20662;-78
2023/04/06 06:21:16;;;;;;;2.40;0.50;;;22.90;99.90;;;;;;5085637;28;20286;-79
2023/04/06 06:23:48;;;;;;;0.98;0.50;;;23.00;99.90;;;;;;5076170;28;20269;-79
2023/04/06 06:26:21;;;;;;;1.95;0.70;;;23.00;99.90;;;;;;5081830;28;20205;-78
2023/04/06 06:28:52;;;;;;;2.42;0.80;;;23.00;99.90;;;;;;5089766;28;20231;-78
2023/04/06 06:31:24;;;;;;;1.25;0.68;;;23.00;99.90;;;;;;5087765;28;20192;-78
2023/04/06 06:33:55;;;;;;;2.22;0.65;;;23.00;99.90;;;;;;5070358;28;20277;-78
2023/04/06 06:36:27;;;;;;;3.45;0.70;;;22.90;99.90;;;;;;5078444;28;20227;-79
2023/04/06 06:38:58;;;;;;;2.38;0.80;;;22.90;99.90;;;;;;5082017;28;20234;-78
2023/04/06 06:41:31;;;;;;;3.35;1.00;;;22.80;99.90;;;;;;5072786;28;20255;-78
2023/04/06 06:44:02;;;;;;;4.85;0.90;;;22.80;99.90;;;;;;5090455;28;20677;-78
2023/04/06 06:46:33;;;;;;;2.83;0.90;;;22.80;99.90;;;;;;5085161;28;20226;-79
2023/04/06 06:49:05;;;;;;;2.47;0.73;;;22.80;99.90;;;;;;5081157;28;20650;-77
2023/04/06 06:51:36;;;;;;;1.80;0.57;;;22.70;99.90;;;;;;5073946;28;20562;-79
2023/04/06 06:54:07;;;;;;;3.60;1.05;;;22.70;99.90;;;;;;5081991;28;20302;-79
2023/04/06 06:56:40;;;;;;;3.42;0.80;;;22.70;99.90;;;;;;5089040;28;20213;-78
2023/04/06 06:59:11;;;;;;;2.55;0.95;;;22.70;99.90;;;;;;5070314;28;20259;-78
2023/04/06 07:01:43;;;;;;;2.90;0.80;;;22.60;99.90;;;;;;5089953;28;20274;-77
2023/04/06 07:04:14;;;;;;;2.92;0.90;;;22.60;99.90;;;;;;5083683;28;20203;-78
2023/04/06 07:06:45;;;;;;;2.00;0.90;;;22.60;99.90;;;;;;5089909;28;20227;-78
2023/04/06 07:09:16;;;;;;;2.88;0.90;;;22.60;99.90;;;;;;5090148;28;20231;-78
2023/04/06 07:11:50;;;;;;;4.03;1.00;;;22.60;99.90;;;;;;5088463;28;20209;-79
2023/04/06 07:14:21;;;;;;;3.45;0.85;;;22.50;99.90;;;;;;5070230;28;20246;-79
2023/04/06 07:16:52;;;;;;;3.35;1.02;;;22.50;99.90;;;;;;5071649;28;20730;-78
2023/04/06 07:19:23;;;;;;;2.97;0.98;;;22.50;99.90;;;;;;5073669;28;20196;-78
2023/04/06 07:21:56;;;;;;;3.40;0.90;;;22.50;99.90;;;;;;5074442;28;20218;-78
2023/04/06 07:24:27;;;;;;;2.83;0.88;;;22.40;99.90;;;;;;5073593;28;20200;-77
2023/04/06 07:27:02;;;;;;;3.17;0.90;;;22.40;99.90;;;;;;5073645;28;20243;-79
2023/04/06 07:29:33;;;;;;;4.40;1.10;;;22.40;99.90;;;;;;5072581;28;20196;-77
2023/04/06 07:32:06;;;;;;;2.60;0.98;;;22.40;99.90;;;;;;5073537;28;20192;-79
2023/04/06 07:34:37;;;;;;;3.38;0.93;;;22.40;99.90;;;;;;5083921;28;20597;-78
2023/04/06 07:37:08;;;;;;;6.00;1.00;;;22.40;99.90;;;;;;5093440;28;20226;-78
2023/04/06 07:39:42;;;;;;;3.05;1.00;;;22.40;99.90;;;;;;5072808;28;20250;-80
2023/04/06 07:42:15;;;;;;;3.00;0.98;;;22.30;99.90;;;;;;5073224;28;20200;-77
2023/04/06 07:44:46;;;;;;;2.40;0.90;;;22.30;99.90;;;;;;5072876;28;20199;-78
2023/04/06 07:47:17;;;;;;;2.60;1.20;;;22.30;99.90;;;;;;5091720;28;20586;-79
2023/04/06 07:49:49;;;;;;;2.53;1.00;;;22.30;99.90;;;;;;5075521;28;20286;-79
2023/04/06 07:52:20;;;;;;;3.20;1.13;;;22.30;99.90;;;;;;5073096;28;20192;-78
2023/04/06 07:54:52;;;;;;;2.90;1.10;;;22.30;99.90;;;;;;5079417;28;20706;-78
2023/04/06 07:57:27;;;;;;;1.98;0.73;;;22.20;99.90;;;;;;5075175;28;20196;-79
2023/04/06 07:59:59;;;;;;;1.85;0.90;;;22.20;99.90;;;;;;5073098;28;20693;-79
2023/04/06 08:02:30;;;;;;;5.45;1.10;;;22.20;99.90;;;;;;5082220;28;20282;-79
2023/04/06 08:05:02;;;;;;;4.55;1.70;;;22.10;99.90;;;;;;5087997;28;20575;-78
2023/04/06 08:07:33;;;;;;;2.58;1.23;;;22.10;99.90;;;;;;5088676;28;20654;-79
2023/04/06 08:10:04;;;;;;;5.18;1.30;;;22.00;99.90;;;;;;5092402;28;20221;-79
2023/04/06 08:12:37;;;;;;;3.45;1.20;;;22.10;99.90;;;;;;5097040;28;20206;-78
2023/04/06 08:15:09;;;;;;;4.10;1.50;;;22.00;99.90;;;;;;5076827;28;20240;-78
2023/04/06 08:17:40;;;;;;;4.53;1.20;;;22.00;99.90;;;;;;5073636;28;20211;-77
2023/04/06 08:20:13;;;;;;;3.30;1.00;;;22.00;99.90;;;;;;5078924;28;20258;-79
2023/04/06 08:22:44;;;;;;;1.98;0.80;;;22.00;99.90;;;;;;5076973;28;20608;-78
2023/04/06 08:25:15;;;;;;;3.53;1.00;;;21.90;99.90;;;;;;5088407;28;20628;-78
2023/04/06 08:27:48;;;;;;;3.78;1.15;;;21.90;99.90;;;;;;5091500;28;20680;-77
2023/04/06 08:30:20;;;;;;;3.95;1.10;;;21.90;99.90;;;;;;5092510;28;20247;-79
2023/04/06 08:32:52;;;;;;;3.45;1.20;;;21.90;99.90;;;;;;5083406;28;20260;-79
2023/04/06 08:35:23;;;;;;;2.10;0.90;;;21.80;99.90;;;;;;5087570;28;20237;-77
2023/04/06 08:37:54;;;;;;;3.47;1.10;;;21.80;99.90;;;;;;5089264;28;20216;-78
2023/04/06 08:40:25;;;;;;;2.17;1.10;;;21.70;99.90;;;;;;5078211;28;20202;-78
2023/04/06 08:43:01;;;;;;;4.93;1.42;;;21.70;99.90;;;;;;5090129;28;20238;-78
2023/04/06 08:45:33;;;;;;;3.38;1.20;;;21.70;99.90;;;;;;5090236;28;20282;-79
2023/04/06 08:48:06;;;;;;;3.03;1.25;;;21.60;99.90;;;;;;5071439;28;20227;-78
2023/04/06 08:50:38;;;;;;;4.78;1.55;;;21.60;99.90;;;;;;5078089;28;20231;-77
2023/04/06 08:53:10;;;;;;;4.00;1.50;;;21.60;99.90;;;;;;5091706;28;20690;-78
2023/04/06 08:55:41;;;;;;;4.68;1.45;;;21.50;99.90;;;;;;5092231;28;20249;-78
2023/04/06 08:58:15;;;;;;;3.65;1.40;;;21.50;99.90;;;;;;5086484;28;20204;-79
2023/04/06 09:00:46;;;;;;;2.95;1.38;;;21.50;99.90;;;;;;5083436;28;20187;-79
2023/04/06 09:03:18;;;;;;;6.15;1.20;;;21.50;99.90;;;;;;5074430;28;20231;-79
2023/04/06 09:05:50;;;;;;;1.58;0.90;;;21.50;99.90;;;;;;5070078;28;20196;-77
2023/04/06 09:08:22;;;;;;;3.03;1.00;;;21.40;99.90;;;;;;5088213;28;20314;-78
2023/04/06 09:10:53;;;;;;;5.10;1.60;;;21.40;99.90;;;;;;5075477;28;20195;-79
2023/04/06 09:13:27;;;;;;;2.35;1.10;;;21.40;99.90;;;;;;5074729;28;20192;-79
2023/04/06 09:16:05;;;;;;;5.22;1.20;;;21.40;99.90;;;;;;5089838;28;20235;-79
2023/04/06 09:18:37;;;;;;;4.07;1.23;;;21.30;99.90;;;;;;5090893;28;20195;-78
2023/04/06 09:21:09;;;;;;;3.08;1.15;;;21.30;99.90;;;;;;5075515;28;20242;-77
2023/04/06 09:23:41;;;;;;;3.15;1.17;;;21.30;99.90;;;;;;5081889;28;20231;-77
2023/04/06 09:26:14;;;;;;;2.95;1.08;;;21.30;99.90;;;;;;5087279;28;20238;-77
2023/04/06 09:28:51;;;;;;;3.17;1.10;;;21.30;99.90;;;;;;5071192;28;20231;-78
2023/04/06 09:31:27;;;;;;;2.85;1.00;;;21.20;99.90;;;;;;5077456;28;20270;-78
2023/04/06 09:33:59;;;;;;;6.75;1.30;;;21.20;99.90;;;;;;5082936;28;20196;-78
2023/04/06 09:36:38;;;;;;;2.72;1.20;;;21.20;99.90;;;;;;5080273;28;20307;-78
2023/04/06 09:39:09;;;;;;;4.57;2.20;;;21.20;99.90;;;;;;5084553;28;20210;-79
2023/04/06 09:41:41;;;;;;;7.72;4.00;;;21.10;99.90;;;;;;5088205;28;20581;-78
2023/04/06 09:44:15;;;;;;;9.18;4.03;;;21.10;99.90;;;;;;5087655;28;20203;-77
2023/04/06 09:46:47;;;;;;;8.98;5.07;;;21.10;99.90;;;;;;5087489;28;20191;-78
2023/04/06 09:49:18;;;;;;;9.27;5.32;;;21.00;99.90;;;;;;5087294;28;20666;-77
2023/04/06 09:51:55;;;;;;;9.57;5.20;;;21.00;99.90;;;;;;5087407;28;20192;-78
2023/04/06 09:54:28;;;;;;;8.27;5.13;;;21.00;99.90;;;;;;5090820;28;20286;-77
2023/04/06 09:57:06;;;;;;;9.55;5.32;;;20.90;99.90;;;;;;5087693;28;20229;-78
2023/04/06 09:59:54;;;;;;;9.95;4.80;;;20.90;99.90;;;;;;5086151;28;20589;-78
2023/04/06 10:02:35;;;;;;;7.22;3.85;;;20.90;99.90;;;;;;5082999;28;20228;-79
2023/04/06 10:05:12;;;;;;;8.55;3.08;;;20.90;99.90;;;;;;5079356;28;20230;-78
2023/04/06 10:07:46;;;;;;;5.28;2.50;;;20.90;99.90;;;;;;5074418;28;20210;-78
2023/04/06 10:10:18;;;;;;;3.78;2.50;;;20.90;99.90;;;;;;5072100;28;20226;-78
2023/04/06 10:12:51;;;;;;;6.90;2.65;;;20.80;99.90;;;;;;5086863;28;20658;-77
2023/04/06 10:15:24;;;;;;;5.45;2.30;;;20.90;99.90;;;;;;5079390;28;20294;-80
2023/04/06 10:17:55;;;;;;;4.68;2.05;;;20.90;99.90;;;;;;5090498;28;20280;-77
2023/04/06 10:20:31;;;;;;;6.25;2.22;;;20.80;99.90;;;;;;5082176;28;20204;-77
2023/04/06 10:23:08;;;;;;;8.98;2.40;;;20.80;99.90;;;;;;5078111;28;20240;-77
2023/04/06 10:25:39;;;;;;;4.13;2.00;;;20.70;99.90;;;;;;5080102;28;20195;-79
2023/04/06 10:28:11;;;;;;;6.20;2.30;;;20.70;99.90;;;;;;5090406;28;20619;-78
2023/04/06 10:30:48;;;;;;;6.72;1.98;;;20.70;99.90;;;;;;5090188;28;20199;-76
2023/04/06 10:33:19;;;;;;;6.30;2.50;;;20.70;99.90;;;;;;5089573;28;20199;-78
2023/04/06 10:35:51;;;;;;;7.25;3.80;;;20.60;99.90;;;;;;5072542;28;20299;-78
2023/04/06 10:38:24;;;;;;;7.93;3.13;;;20.70;99.90;;;;;;5077385;28;20195;-78
2023/04/06 10:40:55;;;;;;;7.45;2.97;;;20.60;99.90;;;;;;5078449;28;20199;-78
2023/04/06 10:43:27;;;;;;;5.18;2.25;;;20.60;99.90;;;;;;5089382;28;20200;-79
2023/04/06 10:46:02;;;;;;;5.22;2.10;;;20.60;99.90;;;;;;5090882;28;20183;-79
2023/04/06 10:48:42;;;;;;;6.80;2.30;;;20.60;99.90;;;;;;5089075;28;20624;-77
2023/04/06 10:51:14;;;;;;;6.70;2.03;;;20.60;99.90;;;;;;5091316;28;20199;-78
2023/04/06 10:53:47;;;;;;;5.32;1.90;;;20.70;99.90;;;;;;5094645;28;20628;-79
2023/04/06 10:56:20;;;;;;;4.70;1.88;;;20.60;99.90;;;;;;5082194;28;20299;-79
2023/04/06 10:58:52;;;;;;;5.13;1.90;;;20.70;99.90;;;;;;5093292;28;20215;-78
2023/04/06 11:01:26;;;;;;;4.28;1.75;;;20.60;99.90;;;;;;5094882;28;20231;-77
2023/04/06 11:04:00;;;;;;;4.35;1.73;;;20.60;99.90;;;;;;5094816;28;20229;-78
2023/04/06 11:06:32;;;;;;;5.15;1.63;;;20.60;99.90;;;;;;5095213;28;20231;-77
2023/04/06 11:09:04;;;;;;;5.90;1.75;;;20.60;99.90;;;;;;5094957;28;20218;-78
2023/04/06 11:11:35;;;;;;;4.30;1.60;;;20.60;99.90;;;;;;5097502;28;20199;-78
2023/04/06 11:14:06;;;;;;;6.50;1.63;;;20.60;99.90;;;;;;5091092;28;20209;-77
2023/04/06 11:16:39;;;;;;;4.47;1.85;;;20.60;99.90;;;;;;5103368;28;20229;-77
2023/04/06 11:19:12;;;;;;;7.20;2.08;;;20.60;99.90;;;;;;5106426;28;20199;-78
2023/04/06 11:21:46;;;;;;;6.07;1.83;;;20.60;99.90;;;;;;5101272;28;20205;-78
2023/04/06 11:24:19;;;;;;;5.32;1.90;;;20.50;99.90;;;;;;5095192;28;20665;-78
2023/04/06 11:26:51;;;;;;;5.40;1.73;;;20.50;99.90;;;;;;5091148;28;20187;-78
2023/04/06 11:29:24;;;;;;;4.03;1.65;;;20.40;99.90;;;;;;5091340;28;20235;-78
2023/04/06 11:32:01;;;;;;;4.95;1.60;;;20.40;99.90;;;;;;5073679;28;20199;-77
2023/04/06 11:34:33;;;;;;;5.38;1.80;;;20.40;99.90;;;;;;5073470;28;20725;-77
2023/04/06 11:37:06;;;;;;;3.30;1.50;;;20.40;99.90;;;;;;5092654;28;20259;-78
2023/04/06 11:39:42;;;;;;;4.45;1.55;;;20.40;99.90;;;;;;5083463;28;20545;-78
2023/04/06 11:42:13;;;;;;;6.07;1.70;;;20.40;99.90;;;;;;5091808;28;20248;-78
2023/04/06 11:44:46;;;;;;;2.67;1.70;;;20.40;99.90;;;;;;5092706;28;20230;-77
2023/04/06 11:47:19;;;;;;;5.40;1.83;;;20.40;99.90;;;;;;5082067;28;20204;-77
2023/04/06 11:49:51;;;;;;;3.92;1.40;;;20.40;99.90;;;;;;5074863;28;20238;-78
2023/04/06 11:52:26;;;;;;;5.55;1.88;;;20.40;99.90;;;;;;5093529;28;20200;-77
2023/04/06 11:54:58;;;;;;;5.63;1.80;;;20.40;99.90;;;;;;5093633;28;20230;-78
2023/04/06 11:57:29;;;;;;;3.22;1.77;;;20.40;99.90;;;;;;5072916;28;20259;-78
2023/04/06 12:00:00;;;;;;;4.18;1.70;;;20.40;99.90;;;;;;5073231;28;20588;-77
2023/04/06 12:02:33;;;;;;;5.03;2.00;;;20.30;99.90;;;;;;5074797;28;20199;-77
2023/04/06 12:05:05;;;;;;;5.20;1.70;;;20.30;99.90;;;;;;5074234;28;20199;-77
2023/04/06 12:07:36;;;;;;;6.03;1.85;;;20.40;99.90;;;;;;5081337;28;20226;-79
2023/04/06 12:10:08;;;;;;;6.75;1.90;;;20.30;99.90;;;;;;5072945;28;20579;-79
2023/04/06 12:12:39;;;;;;;6.03;1.98;;;20.20;99.90;;;;;;5078643;28;20249;-78
2023/04/06 12:15:11;;;;;;;3.47;1.42;;;20.20;99.90;;;;;;5092782;28;20720;-78
2023/04/06 12:17:44;;;;;;;5.68;2.00;;;20.20;99.90;;;;;;5091649;28;20291;-78
2023/04/06 12:20:16;;;;;;;4.47;1.55;;;20.20;99.90;;;;;;5087848;28;20539;-78
2023/04/06 12:22:47;;;;;;;4.47;1.88;;;20.20;99.90;;;;;;5072667;28;20638;-77
2023/04/06 12:25:18;;;;;;;6.82;2.10;;;20.10;99.90;;;;;;5072062;28;20206;-79
2023/04/06 12:27:49;;;;;;;3.38;1.60;;;20.10;99.90;;;;;;5092511;28;20291;-79
2023/04/06 12:30:21;;;;;;;3.72;1.77;;;20.10;99.90;;;;;;5092596;28;20195;-78
2023/04/06 12:32:54;;;;;;;5.85;1.90;;;20.20;99.90;;;;;;5092513;28;20782;-76
2023/04/06 12:35:25;;;;;;;5.03;1.80;;;20.10;99.90;;;;;;5092179;28;20202;-78
2023/04/06 12:37:56;;;;;;;5.25;1.80;;;20.10;99.90;;;;;;5077965;28;20200;-77
2023/04/06 12:40:28;;;;;;;5.10;2.08;;;20.10;99.90;;;;;;5072299;28;20563;-78
2023/04/06 12:42:59;;;;;;;3.85;1.60;;;20.10;99.90;;;;;;5072272;28;20232;-77
2023/04/06 12:45:30;;;;;;;6.28;1.88;;;20.10;99.90;;;;;;5072098;28;20250;-76
2023/04/06 12:48:04;;;;;;;4.03;1.80;;;20.10;99.90;;;;;;5085386;28;20666;-78
2023/04/06 12:50:35;;;;;;;4.50;1.80;;;20.00;99.90;;;;;;5071856;28;20204;-78
2023/04/06 12:53:06;;;;;;;6.15;1.70;;;20.00;99.90;;;;;;5071332;28;20271;-77
2023/04/06 12:55:37;;;;;;;5.88;1.80;;;20.00;99.90;;;;;;5082090;28;20195;-76
2023/04/06 12:58:08;;;;;;;3.30;1.60;;;20.00;99.90;;;;;;5090586;28;20684;-77
2023/04/06 13:00:40;;;;;;;5.43;1.70;;;20.00;99.90;;;;;;5087357;28;20291;-78
2023/04/06 13:03:13;;;;;;;4.55;1.75;;;20.00;99.90;;;;;;5082879;28;20196;-78
2023/04/06 13:05:48;;;;;;;5.15;1.55;;;20.00;99.90;;;;;;5091188;28;20226;-78
2023/04/06 13:08:20;;;;;;;4.53;1.50;;;20.00;99.90;;;;;;5070398;28;20231;-76
2023/04/06 13:10:52;;;;;;;3.47;1.23;;;20.00;99.90;;;;;;5072228;28;20612;-77
2023/04/06 13:13:26;;;;;;;4.80;1.55;;;20.00;99.90;;;;;;5070655;28;20199;-77